createdAt,value
2018-05-12T00:00:51.398Z,12.87
2018-05-12T00:01:51.406Z,12.85
2018-05-12T00:02:51.250Z,12.76
2018-05-12T00:03:51.130Z,12.77
2018-05-12T00:04:51.035Z,12.81
2018-05-12T00:05:51.025Z,12.66
2018-05-12T00:06:50.851Z,12.63
2018-05-12T00:07:50.789Z,12.69
2018-05-12T00:08:50.769Z,12.71
2018-05-12T00:09:50.577Z,12.63
2018-05-12T00:10:50.488Z,12.66
2018-05-12T00:11:50.397Z,12.67
2018-05-12T00:12:50.305Z,12.61
2018-05-12T00:13:50.244Z,12.58
2018-05-12T00:14:50.121Z,12.70
2018-05-12T00:15:50.035Z,12.96
2018-05-12T00:16:49.940Z,13.16
2018-05-12T00:17:49.850Z,13.50
2018-05-12T00:18:49.793Z,13.65
2018-05-12T00:19:49.674Z,13.68
2018-05-12T00:20:49.580Z,13.83
2018-05-12T00:21:49.487Z,13.86
2018-05-12T00:22:49.399Z,13.94
2018-05-12T00:23:49.304Z,13.90
2018-05-12T00:24:49.243Z,13.90
2018-05-12T00:25:49.212Z,13.96
2018-05-12T00:26:49.029Z,13.98
2018-05-12T00:27:48.935Z,14.04
2018-05-12T00:28:48.846Z,14.04
2018-05-12T00:29:48.787Z,14.11
2018-05-12T00:30:48.666Z,14.16
2018-05-12T00:31:48.573Z,14.17
2018-05-12T00:32:48.481Z,14.06
2018-05-12T00:33:48.392Z,14.11
2018-05-12T00:34:48.328Z,14.09
2018-05-12T00:35:48.209Z,14.09
2018-05-12T00:36:48.116Z,14.11
2018-05-12T00:37:48.025Z,14.12
2018-05-12T00:38:47.941Z,14.06
2018-05-12T00:39:47.876Z,14.08
2018-05-12T00:40:47.754Z,14.01
2018-05-12T00:41:47.664Z,13.99
2018-05-12T00:42:47.571Z,14.05
2018-05-12T00:43:47.477Z,13.98
2018-05-12T00:44:47.398Z,13.99
2018-05-12T00:45:47.328Z,14.11
2018-05-12T00:46:47.209Z,13.96
2018-05-12T00:47:47.117Z,14.01
2018-05-12T00:48:47.026Z,13.96
2018-05-12T00:49:46.934Z,13.98
2018-05-12T00:50:46.873Z,14.04
2018-05-12T00:51:46.754Z,14.02
2018-05-12T00:52:46.662Z,14.04
2018-05-12T00:53:46.574Z,13.98
2018-05-12T00:54:46.479Z,13.93
2018-05-12T00:55:46.401Z,13.90
2018-05-12T00:56:46.326Z,13.98
2018-05-12T00:57:46.203Z,14.09
2018-05-12T00:58:46.111Z,14.02
2018-05-12T00:59:46.023Z,13.93
2018-05-12T01:00:45.930Z,14.02
2018-05-12T01:01:45.873Z,14.04
2018-05-12T01:02:45.750Z,14.02
2018-05-12T01:03:45.659Z,14.09
2018-05-12T01:04:45.568Z,14.04
2018-05-12T01:05:45.478Z,14.02
2018-05-12T01:06:45.412Z,14.01
2018-05-12T01:07:45.292Z,14.05
2018-05-12T01:08:45.203Z,14.05
2018-05-12T01:09:45.112Z,14.02
2018-05-12T01:10:45.023Z,13.91
2018-05-12T01:11:44.960Z,14.02
2018-05-12T01:12:44.836Z,13.91
2018-05-12T01:13:44.746Z,14.01
2018-05-12T01:14:44.653Z,13.96
2018-05-12T01:15:44.563Z,13.94
2018-05-12T01:16:44.503Z,13.96
2018-05-12T01:17:44.381Z,13.98
2018-05-12T01:18:44.290Z,13.94
2018-05-12T01:19:44.199Z,13.98
2018-05-12T01:20:44.109Z,13.91
2018-05-12T01:21:44.018Z,13.94
2018-05-12T01:22:43.957Z,13.90
2018-05-12T01:23:43.834Z,13.98
2018-05-12T01:24:43.744Z,13.98
2018-05-12T01:25:43.654Z,14.02
2018-05-12T01:26:43.560Z,13.96
2018-05-12T01:27:43.498Z,14.02
2018-05-12T01:28:43.381Z,13.94
2018-05-12T01:29:43.288Z,13.88
2018-05-12T01:30:43.193Z,13.96
2018-05-12T01:31:43.102Z,13.98
2018-05-12T01:32:43.045Z,13.94
2018-05-12T01:33:42.919Z,13.98
2018-05-12T01:34:42.828Z,13.86
2018-05-12T01:35:42.735Z,13.99
2018-05-12T01:36:42.647Z,13.98
2018-05-12T01:37:42.599Z,14.05
2018-05-12T01:38:42.467Z,13.93
2018-05-12T01:39:42.373Z,13.99
2018-05-12T01:40:42.282Z,13.93
2018-05-12T01:41:42.193Z,13.87
2018-05-12T01:42:42.126Z,13.94
2018-05-12T01:43:42.007Z,13.99
2018-05-12T01:44:41.915Z,13.98
2018-05-12T01:45:41.823Z,14.05
2018-05-12T01:46:41.731Z,13.91
2018-05-12T01:47:41.694Z,13.87
2018-05-12T01:48:41.551Z,13.86
2018-05-12T01:49:41.460Z,14.02
2018-05-12T01:50:41.371Z,13.96
2018-05-12T01:51:41.275Z,13.99
2018-05-12T01:52:41.234Z,13.86
2018-05-12T01:53:41.094Z,13.88
2018-05-12T01:54:41.005Z,13.93
2018-05-12T01:55:40.910Z,13.87
2018-05-12T01:56:40.822Z,13.91
2018-05-12T01:57:40.728Z,13.88
2018-05-12T01:58:40.666Z,13.88
2018-05-12T01:59:40.544Z,13.88
2018-05-12T02:00:40.763Z,13.91
2018-05-12T02:01:40.364Z,13.96
2018-05-12T02:02:40.271Z,14.02
2018-05-12T02:03:40.212Z,13.96
2018-05-12T02:04:40.089Z,13.86
2018-05-12T02:05:40.004Z,13.98
2018-05-12T02:06:39.905Z,13.91
2018-05-12T02:07:39.915Z,13.96
2018-05-12T02:08:39.753Z,13.98
2018-05-12T02:09:39.633Z,13.94
2018-05-12T02:10:39.538Z,13.93
2018-05-12T02:11:39.451Z,13.93
2018-05-12T02:12:39.359Z,13.99
2018-05-12T02:13:39.304Z,13.94
2018-05-12T02:14:39.272Z,13.96
2018-05-12T02:15:39.085Z,14.01
2018-05-12T02:16:38.992Z,14.02
2018-05-12T02:17:38.901Z,13.94
2018-05-12T02:18:38.842Z,13.96
2018-05-12T02:19:38.717Z,13.99
2018-05-12T02:20:38.627Z,13.98
2018-05-12T02:21:38.638Z,14.01
2018-05-12T02:22:38.444Z,13.98
2018-05-12T02:23:38.355Z,14.02
2018-05-12T02:24:38.294Z,14.01
2018-05-12T02:25:38.172Z,13.90
2018-05-12T02:26:38.079Z,14.02
2018-05-12T02:27:38.051Z,13.91
2018-05-12T02:28:37.994Z,13.94
2018-05-12T02:29:38.569Z,13.86
2018-05-12T02:30:37.714Z,13.84
2018-05-12T02:31:37.625Z,13.98
2018-05-12T02:32:37.531Z,13.86
2018-05-12T02:33:37.440Z,13.90
2018-05-12T02:34:37.348Z,13.93
2018-05-12T02:35:37.388Z,13.93
2018-05-12T02:36:37.166Z,13.87
2018-05-12T02:37:37.074Z,13.93
2018-05-12T02:38:36.985Z,13.87
2018-05-12T02:39:36.892Z,13.88
2018-05-12T02:40:36.838Z,13.90
2018-05-12T02:41:36.715Z,13.87
2018-05-12T02:42:36.718Z,13.88
2018-05-12T02:43:36.534Z,13.83
2018-05-12T02:44:36.438Z,13.75
2018-05-12T02:45:36.376Z,13.81
2018-05-12T02:46:36.253Z,13.81
2018-05-12T02:47:36.167Z,13.71
2018-05-12T02:48:36.074Z,13.80
2018-05-12T02:49:36.075Z,13.73
2018-05-12T02:50:35.920Z,13.75
2018-05-12T02:51:35.795Z,13.72
2018-05-12T02:52:35.704Z,13.72
2018-05-12T02:53:35.614Z,13.71
2018-05-12T02:54:35.521Z,13.65
2018-05-12T02:55:35.564Z,13.71
2018-05-12T02:56:35.439Z,13.76
2018-05-12T02:57:35.248Z,13.79
2018-05-12T02:58:35.154Z,13.76
2018-05-12T02:59:35.068Z,13.76
2018-05-12T03:00:34.994Z,13.75
2018-05-12T03:01:34.916Z,13.75
2018-05-12T03:02:34.789Z,13.76
2018-05-12T03:03:34.795Z,13.73
2018-05-12T03:04:34.658Z,13.72
2018-05-12T03:05:34.519Z,13.80
2018-05-12T03:06:34.456Z,13.73
2018-05-12T03:07:34.333Z,13.73
2018-05-12T03:08:34.246Z,13.76
2018-05-12T03:09:34.153Z,13.72
2018-05-12T03:10:34.179Z,13.80
2018-05-12T03:11:33.969Z,13.83
2018-05-12T03:12:33.912Z,13.88
2018-05-12T03:13:33.787Z,13.90
2018-05-12T03:14:33.696Z,13.87
2018-05-12T03:15:33.606Z,13.84
2018-05-12T03:16:33.514Z,13.73
2018-05-12T03:17:33.456Z,13.83
2018-05-12T03:18:33.331Z,13.75
2018-05-12T03:19:33.243Z,13.73
2018-05-12T03:20:33.147Z,13.84
2018-05-12T03:21:33.059Z,13.86
2018-05-12T03:22:32.994Z,13.75
2018-05-12T03:23:32.875Z,13.79
2018-05-12T03:24:32.781Z,13.72
2018-05-12T03:25:32.691Z,13.87
2018-05-12T03:26:32.604Z,13.81
2018-05-12T03:27:32.541Z,13.69
2018-05-12T03:28:32.418Z,13.76
2018-05-12T03:29:32.324Z,13.76
2018-05-12T03:30:32.236Z,13.73
2018-05-12T03:31:32.143Z,13.79
2018-05-12T03:32:32.092Z,13.73
2018-05-12T03:33:31.962Z,13.76
2018-05-12T03:34:31.870Z,13.79
2018-05-12T03:35:31.779Z,13.79
2018-05-12T03:36:31.688Z,13.80
2018-05-12T03:37:31.599Z,13.73
2018-05-12T03:38:31.537Z,13.72
2018-05-12T03:39:31.413Z,13.72
2018-05-12T03:40:31.323Z,13.72
2018-05-12T03:41:31.234Z,13.69
2018-05-12T03:42:31.143Z,13.65
2018-05-12T03:43:31.091Z,13.61
2018-05-12T03:44:30.958Z,13.65
2018-05-12T03:45:30.866Z,13.69
2018-05-12T03:46:30.775Z,13.59
2018-05-12T03:47:30.683Z,13.73
2018-05-12T03:48:30.592Z,13.61
2018-05-12T03:49:30.532Z,13.66
2018-05-12T03:50:30.409Z,13.57
2018-05-12T03:51:30.317Z,13.63
2018-05-12T03:52:30.227Z,13.71
2018-05-12T03:53:30.136Z,13.62
2018-05-12T03:54:30.078Z,13.61
2018-05-12T03:55:29.952Z,13.59
2018-05-12T03:56:29.861Z,13.62
2018-05-12T03:57:29.771Z,13.59
2018-05-12T03:58:29.679Z,13.62
2018-05-12T03:59:29.620Z,13.57
2018-05-12T04:00:29.495Z,13.66
2018-05-12T04:01:29.404Z,13.62
2018-05-12T04:02:29.313Z,13.61
2018-05-12T04:03:29.220Z,13.59
2018-05-12T04:04:29.160Z,13.57
2018-05-12T04:05:29.038Z,13.53
2018-05-12T04:06:28.946Z,13.50
2018-05-12T04:07:28.855Z,13.50
2018-05-12T04:08:28.824Z,13.43
2018-05-12T04:09:28.704Z,13.57
2018-05-12T04:10:28.580Z,13.47
2018-05-12T04:11:28.491Z,13.43
2018-05-12T04:12:28.399Z,13.46
2018-05-12T04:13:28.307Z,13.46
2018-05-12T04:14:28.460Z,13.48
2018-05-12T04:15:28.120Z,13.48
2018-05-12T04:16:28.033Z,13.48
2018-05-12T04:17:27.941Z,13.46
2018-05-12T04:18:27.850Z,13.47
2018-05-12T04:19:27.785Z,13.48
2018-05-12T04:20:27.672Z,13.46
2018-05-12T04:21:27.580Z,13.47
2018-05-12T04:22:27.489Z,13.44
2018-05-12T04:23:27.391Z,13.44
2018-05-12T04:24:27.302Z,13.54
2018-05-12T04:25:27.241Z,13.51
2018-05-12T04:26:27.117Z,13.50
2018-05-12T04:27:27.028Z,13.50
2018-05-12T04:28:26.941Z,13.61
2018-05-12T04:29:26.845Z,13.54
2018-05-12T04:30:26.796Z,13.61
2018-05-12T04:31:26.659Z,13.61
2018-05-12T04:32:26.569Z,13.61
2018-05-12T04:33:26.477Z,13.62
2018-05-12T04:34:26.386Z,13.65
2018-05-12T04:35:26.294Z,13.63
2018-05-12T04:36:26.232Z,13.68
2018-05-12T04:37:26.111Z,13.68
2018-05-12T04:38:26.021Z,13.69
2018-05-12T04:39:25.930Z,13.71
2018-05-12T04:40:25.837Z,13.79
2018-05-12T04:41:25.776Z,13.73
2018-05-12T04:42:25.659Z,13.80
2018-05-12T04:43:25.579Z,13.80
2018-05-12T04:44:25.472Z,13.80
2018-05-12T04:45:25.380Z,13.83
2018-05-12T04:46:25.319Z,13.87
2018-05-12T04:47:25.292Z,13.90
2018-05-12T04:48:25.110Z,13.98
2018-05-12T04:49:25.014Z,13.96
2018-05-12T04:50:24.924Z,13.99
2018-05-12T04:51:24.862Z,14.08
2018-05-12T04:52:24.742Z,14.06
2018-05-12T04:53:24.649Z,14.05
2018-05-12T04:54:24.665Z,14.19
2018-05-12T04:55:24.468Z,14.24
2018-05-12T04:56:24.409Z,14.24
2018-05-12T04:57:24.287Z,14.26
2018-05-12T04:58:24.195Z,14.38
2018-05-12T04:59:24.103Z,14.34
2018-05-12T05:00:24.012Z,14.34
2018-05-12T05:01:24.044Z,14.39
2018-05-12T05:02:23.834Z,14.35
2018-05-12T05:03:23.739Z,14.41
2018-05-12T05:04:23.651Z,14.41
2018-05-12T05:05:23.565Z,14.46
2018-05-12T05:06:23.494Z,14.49
2018-05-12T05:07:23.471Z,14.63
2018-05-12T05:08:23.284Z,14.64
2018-05-12T05:09:23.196Z,14.64
2018-05-12T05:10:23.110Z,14.69
2018-05-12T05:11:23.051Z,14.79
2018-05-12T05:12:22.924Z,14.64
2018-05-12T05:13:22.834Z,14.71
2018-05-12T05:14:22.851Z,14.69
2018-05-12T05:15:22.749Z,14.75
2018-05-12T05:16:22.563Z,14.75
2018-05-12T05:17:22.504Z,14.75
2018-05-12T05:18:22.383Z,14.80
2018-05-12T05:19:22.289Z,14.87
2018-05-12T05:20:22.199Z,14.86
2018-05-12T05:21:22.110Z,15.00
2018-05-12T05:22:22.050Z,14.95
2018-05-12T05:23:21.933Z,15.04
2018-05-12T05:24:21.840Z,15.11
2018-05-12T05:25:21.754Z,15.15
2018-05-12T05:26:21.657Z,15.13
2018-05-12T05:27:21.600Z,15.12
2018-05-12T05:28:21.480Z,15.09
2018-05-12T05:29:21.390Z,14.94
2018-05-12T05:30:21.301Z,14.93
2018-05-12T05:31:21.208Z,14.87
2018-05-12T05:32:21.150Z,14.98
2018-05-12T05:33:21.032Z,15.00
2018-05-12T05:34:21.048Z,15.05
2018-05-12T05:35:20.900Z,14.98
2018-05-12T05:36:20.762Z,15.09
2018-05-12T05:37:20.704Z,15.01
2018-05-12T05:38:20.578Z,14.98
2018-05-12T05:39:20.486Z,15.01
2018-05-12T05:40:20.398Z,14.93
2018-05-12T05:41:20.404Z,14.93
2018-05-12T05:42:20.250Z,14.90
2018-05-12T05:43:20.128Z,14.90
2018-05-12T05:44:20.043Z,14.78
2018-05-12T05:45:19.958Z,14.83
2018-05-12T05:46:19.858Z,14.78
2018-05-12T05:47:19.801Z,14.82
2018-05-12T05:48:19.774Z,14.75
2018-05-12T05:49:19.595Z,14.72
2018-05-12T05:50:19.530Z,14.74
2018-05-12T05:51:19.411Z,14.69
2018-05-12T05:52:19.356Z,14.71
2018-05-12T05:53:19.237Z,14.72
2018-05-12T05:54:19.142Z,14.74
2018-05-12T05:55:19.158Z,14.74
2018-05-12T05:56:18.961Z,14.80
2018-05-12T05:57:18.902Z,14.80
2018-05-12T05:58:18.781Z,14.90
2018-05-12T05:59:18.693Z,14.86
2018-05-12T06:00:18.600Z,15.01
2018-05-12T06:01:18.510Z,15.03
2018-05-12T06:02:18.549Z,15.07
2018-05-12T06:03:18.335Z,15.07
2018-05-12T06:04:18.246Z,15.13
2018-05-12T06:05:18.167Z,15.12
2018-05-12T06:06:18.062Z,15.20
2018-05-12T06:07:18.013Z,15.20
2018-05-12T06:08:17.886Z,15.33
2018-05-12T06:09:17.885Z,15.27
2018-05-12T06:10:17.705Z,15.38
2018-05-12T06:11:17.613Z,15.38
2018-05-12T06:12:17.532Z,15.33
2018-05-12T06:13:17.466Z,15.52
2018-05-12T06:14:17.346Z,15.49
2018-05-12T06:15:17.256Z,15.51
2018-05-12T06:16:17.279Z,15.62
2018-05-12T06:17:17.080Z,15.67
2018-05-12T06:18:17.025Z,15.64
2018-05-12T06:19:16.896Z,15.80
2018-05-12T06:20:16.807Z,15.74
2018-05-12T06:21:16.717Z,15.86
2018-05-12T06:22:16.629Z,15.86
2018-05-12T06:23:16.668Z,15.88
2018-05-12T06:24:16.452Z,15.92
2018-05-12T06:25:16.360Z,15.98
2018-05-12T06:26:16.274Z,16.10
2018-05-12T06:27:16.183Z,16.22
2018-05-12T06:28:16.124Z,16.18
2018-05-12T06:29:16.010Z,16.17
2018-05-12T06:30:16.011Z,16.22
2018-05-12T06:31:15.824Z,16.29
2018-05-12T06:32:15.738Z,16.34
2018-05-12T06:33:15.679Z,16.36
2018-05-12T06:34:15.561Z,16.51
2018-05-12T06:35:15.471Z,16.60
2018-05-12T06:36:15.381Z,16.62
2018-05-12T06:37:15.391Z,16.84
2018-05-12T06:38:15.234Z,16.88
2018-05-12T06:39:15.112Z,16.88
2018-05-12T06:40:15.025Z,16.84
2018-05-12T06:41:14.939Z,16.82
2018-05-12T06:42:14.849Z,16.87
2018-05-12T06:43:14.887Z,16.87
2018-05-12T06:44:14.675Z,16.90
2018-05-12T06:45:14.585Z,16.91
2018-05-12T06:46:14.495Z,16.95
2018-05-12T06:47:14.410Z,17.05
2018-05-12T06:48:14.354Z,17.21
2018-05-12T06:49:14.234Z,17.35
2018-05-12T06:50:14.142Z,17.14
2018-05-12T06:51:14.056Z,17.35
2018-05-12T06:52:13.969Z,17.33
2018-05-12T06:53:13.911Z,17.40
2018-05-12T06:54:13.796Z,17.57
2018-05-12T06:55:13.705Z,17.79
2018-05-12T06:56:13.619Z,17.71
2018-05-12T06:57:13.532Z,17.63
2018-05-12T06:58:13.477Z,17.65
2018-05-12T06:59:13.359Z,17.55
2018-05-12T07:00:13.270Z,17.60
2018-05-12T07:01:13.184Z,17.65
2018-05-12T07:02:13.098Z,17.47
2018-05-12T07:03:13.047Z,17.60
2018-05-12T07:04:12.973Z,17.53
2018-05-12T07:05:12.896Z,17.60
2018-05-12T07:06:12.761Z,17.60
2018-05-12T07:07:12.667Z,17.76
2018-05-12T07:08:12.995Z,18.23
2018-05-12T07:09:12.488Z,18.39
2018-05-12T07:10:12.402Z,18.51
2018-05-12T07:11:12.317Z,18.71
2018-05-12T07:12:12.230Z,18.44
2018-05-12T07:13:12.173Z,18.54
2018-05-12T07:14:12.059Z,18.59
2018-05-12T07:15:12.066Z,18.53
2018-05-12T07:16:11.885Z,18.87
2018-05-12T07:17:11.802Z,19.23
2018-05-12T07:18:11.720Z,19.20
2018-05-12T07:19:11.665Z,19.31
2018-05-12T07:20:11.546Z,19.38
2018-05-12T07:21:11.459Z,19.16
2018-05-12T07:22:11.371Z,19.01
2018-05-12T07:23:11.322Z,19.02
2018-05-12T07:24:11.201Z,18.97
2018-05-12T07:25:11.116Z,18.97
2018-05-12T07:26:11.030Z,18.78
2018-05-12T07:27:10.951Z,19.01
2018-05-12T07:28:10.863Z,18.84
2018-05-12T07:29:10.803Z,19.06
2018-05-12T07:30:10.695Z,19.20
2018-05-12T07:31:10.608Z,19.09
2018-05-12T07:32:10.519Z,18.79
2018-05-12T07:33:10.443Z,18.65
2018-05-12T07:34:10.385Z,19.01
2018-05-12T07:35:10.264Z,19.20
2018-05-12T07:36:10.177Z,19.20
2018-05-12T07:37:10.093Z,19.39
2018-05-12T07:38:10.013Z,19.50
2018-05-12T07:39:10.022Z,19.78
2018-05-12T07:40:09.841Z,19.71
2018-05-12T07:41:09.758Z,19.95
2018-05-12T07:42:09.672Z,19.39
2018-05-12T07:43:09.587Z,19.20
2018-05-12T07:44:09.534Z,18.87
2018-05-12T07:45:09.417Z,18.83
2018-05-12T07:46:09.364Z,18.74
2018-05-12T07:47:09.246Z,18.99
2018-05-12T07:48:09.166Z,19.25
2018-05-12T07:49:09.112Z,18.94
2018-05-12T07:50:08.993Z,19.05
2018-05-12T07:51:08.909Z,19.30
2018-05-12T07:52:08.823Z,19.25
2018-05-12T07:53:08.739Z,19.21
2018-05-12T07:54:08.685Z,19.06
2018-05-12T07:55:08.569Z,18.97
2018-05-12T07:56:08.487Z,18.74
2018-05-12T07:57:08.399Z,18.68
2018-05-12T07:58:08.315Z,18.78
2018-05-12T07:59:08.268Z,18.90
2018-05-12T08:00:08.147Z,18.83
2018-05-12T08:01:08.061Z,18.99
2018-05-12T08:02:07.977Z,19.23
2018-05-12T08:03:07.891Z,19.32
2018-05-12T08:04:07.837Z,19.32
2018-05-12T08:05:07.721Z,19.45
2018-05-12T08:06:07.636Z,19.49
2018-05-12T08:07:07.554Z,19.45
2018-05-12T08:08:07.467Z,19.35
2018-05-12T08:09:07.411Z,19.32
2018-05-12T08:10:07.298Z,19.49
2018-05-12T08:11:07.213Z,19.67
2018-05-12T08:12:07.130Z,19.58
2018-05-12T08:13:07.048Z,19.50
2018-05-12T08:14:06.990Z,19.50
2018-05-12T08:15:06.875Z,19.61
2018-05-12T08:16:06.789Z,19.64
2018-05-12T08:17:06.704Z,19.28
2018-05-12T08:18:06.617Z,19.61
2018-05-12T08:19:06.563Z,20.08
2018-05-12T08:20:06.451Z,20.05
2018-05-12T08:21:06.365Z,20.22
2018-05-12T08:22:06.280Z,20.34
2018-05-12T08:23:06.196Z,20.76
2018-05-12T08:24:06.143Z,20.85
2018-05-12T08:25:06.032Z,20.41
2018-05-12T08:26:06.674Z,20.42
2018-05-12T08:27:05.860Z,20.25
2018-05-12T08:28:05.807Z,20.38
2018-05-12T08:29:05.694Z,20.88
2018-05-12T08:30:05.635Z,21.16
2018-05-12T08:31:05.523Z,20.68
2018-05-12T08:32:05.532Z,20.56
2018-05-12T08:33:05.356Z,20.53
2018-05-12T08:34:05.274Z,20.75
2018-05-12T08:35:05.218Z,20.97
2018-05-12T08:36:05.102Z,20.78
2018-05-12T08:37:05.021Z,20.96
2018-05-12T08:38:04.939Z,20.64
2018-05-12T08:39:04.862Z,20.25
2018-05-12T08:40:04.799Z,20.01
2018-05-12T08:41:04.689Z,19.72
2018-05-12T08:42:04.602Z,19.87
2018-05-12T08:43:04.519Z,20.02
2018-05-12T08:44:04.435Z,20.38
2018-05-12T08:45:04.382Z,20.54
2018-05-12T08:46:04.360Z,20.16
2018-05-12T08:47:04.185Z,20.20
2018-05-12T08:48:04.101Z,20.56
2018-05-12T08:49:04.016Z,20.81
2018-05-12T08:50:03.964Z,21.06
2018-05-12T08:51:03.850Z,21.70
2018-05-12T08:52:03.766Z,21.74
2018-05-12T08:53:03.779Z,21.70
2018-05-12T08:54:03.602Z,21.83
2018-05-12T08:55:03.549Z,22.14
2018-05-12T08:56:03.437Z,22.20
2018-05-12T08:57:03.351Z,21.53
2018-05-12T08:58:03.267Z,21.11
2018-05-12T08:59:03.187Z,21.71
2018-05-12T09:00:03.230Z,22.01
2018-05-12T09:01:03.028Z,22.36
2018-05-12T09:02:02.939Z,22.46
2018-05-12T09:03:02.856Z,22.45
2018-05-12T09:04:02.772Z,22.67
2018-05-12T09:05:02.720Z,22.70
2018-05-12T09:06:02.607Z,23.11
2018-05-12T09:07:02.624Z,23.18
2018-05-12T09:08:02.444Z,23.34
2018-05-12T09:09:02.376Z,23.52
2018-05-12T09:10:02.309Z,23.54
2018-05-12T09:11:02.198Z,23.54
2018-05-12T09:12:02.114Z,23.26
2018-05-12T09:13:02.035Z,22.64
2018-05-12T09:14:02.045Z,22.45
2018-05-12T09:15:01.904Z,21.99
2018-05-12T09:16:01.790Z,22.26
2018-05-12T09:17:01.709Z,22.01
2018-05-12T09:18:01.628Z,22.06
2018-05-12T09:19:01.545Z,22.23
2018-05-12T09:20:01.494Z,22.19
2018-05-12T09:21:01.476Z,21.77
2018-05-12T09:22:01.303Z,22.41
2018-05-12T09:23:01.219Z,22.30
2018-05-12T09:24:01.139Z,22.74
2018-05-12T09:25:01.096Z,22.44
2018-05-12T09:26:08.778Z,22.61
2018-05-12T09:27:00.896Z,22.29
2018-05-12T09:28:00.815Z,22.56
2018-05-12T09:29:00.735Z,22.75
2018-05-12T09:30:00.684Z,23.31
2018-05-12T09:31:00.572Z,23.63
2018-05-12T09:32:00.498Z,23.49
2018-05-12T09:33:00.417Z,23.54
2018-05-12T09:34:00.327Z,23.57
2018-05-12T09:35:00.277Z,23.56
2018-05-12T09:36:00.165Z,23.52
2018-05-12T09:37:00.088Z,23.16
2018-05-12T09:38:00.010Z,22.84
2018-05-12T09:38:59.923Z,23.38
2018-05-12T09:39:59.847Z,23.81
2018-05-12T09:40:59.793Z,23.34
2018-05-12T09:41:59.678Z,23.16
2018-05-12T09:42:59.599Z,22.96
2018-05-12T09:43:59.518Z,22.89
2018-05-12T09:44:59.444Z,23.31
2018-05-12T09:45:59.387Z,23.34
2018-05-12T09:46:59.277Z,23.81
2018-05-12T09:47:59.197Z,24.18
2018-05-12T09:48:59.116Z,23.59
2018-05-12T09:49:59.035Z,23.68
2018-05-12T09:50:58.987Z,23.89
2018-05-12T09:51:58.875Z,23.89
2018-05-12T09:52:58.795Z,24.45
2018-05-12T09:53:58.713Z,25.04
2018-05-12T09:54:58.633Z,25.54
2018-05-12T09:55:58.581Z,26.00
2018-05-12T09:56:58.477Z,25.42
2018-05-12T09:57:58.395Z,24.97
2018-05-12T09:58:58.314Z,24.67
2018-05-12T09:59:58.246Z,24.41
2018-05-12T10:00:58.182Z,24.09
2018-05-12T10:01:58.075Z,24.18
2018-05-12T10:02:57.994Z,24.64
2018-05-12T10:03:57.917Z,24.52
2018-05-12T10:04:57.837Z,24.55
2018-05-12T10:05:57.787Z,24.67
2018-05-12T10:06:57.678Z,23.14
2018-05-12T10:07:57.598Z,22.64
2018-05-12T10:08:57.519Z,22.56
2018-05-12T10:09:57.438Z,22.44
2018-05-12T10:10:57.394Z,23.57
2018-05-12T10:11:57.283Z,23.63
2018-05-12T10:12:57.297Z,23.56
2018-05-12T10:13:57.121Z,24.29
2018-05-12T10:14:57.043Z,24.66
2018-05-12T10:15:56.992Z,25.23
2018-05-12T10:16:56.882Z,25.05
2018-05-12T10:17:56.803Z,24.77
2018-05-12T10:18:56.723Z,24.29
2018-05-12T10:19:56.648Z,24.06
2018-05-12T10:20:56.597Z,24.67
2018-05-12T10:21:56.485Z,24.80
2018-05-12T10:22:56.407Z,24.86
2018-05-12T10:23:56.327Z,25.26
2018-05-12T10:24:56.248Z,25.74
2018-05-12T10:25:56.197Z,26.54
2018-05-12T10:26:56.092Z,26.94
2018-05-12T10:27:56.010Z,27.49
2018-05-12T10:28:55.931Z,27.78
2018-05-12T10:29:55.943Z,27.71
2018-05-12T10:30:55.807Z,27.42
2018-05-12T10:31:55.696Z,26.59
2018-05-12T10:32:55.619Z,26.32
2018-05-12T10:33:55.539Z,26.08
2018-05-12T10:34:55.475Z,26.27
2018-05-12T10:35:55.413Z,26.46
2018-05-12T10:36:55.400Z,26.35
2018-05-12T10:37:55.225Z,26.36
2018-05-12T10:38:55.177Z,26.59
2018-05-12T10:39:55.076Z,25.85
2018-05-12T10:40:55.025Z,25.36
2018-05-12T10:41:54.917Z,25.12
2018-05-12T10:42:54.838Z,24.90
2018-05-12T10:43:54.858Z,24.90
2018-05-12T10:44:54.701Z,24.99
2018-05-12T10:45:54.609Z,25.72
2018-05-12T10:46:54.562Z,26.09
2018-05-12T10:47:54.449Z,26.88
2018-05-12T10:48:54.374Z,27.27
2018-05-12T10:49:54.296Z,27.39
2018-05-12T10:50:54.315Z,28.23
2018-05-12T10:51:54.171Z,28.69
2018-05-12T10:52:54.062Z,29.02
2018-05-12T10:53:53.986Z,29.33
2018-05-12T10:54:53.911Z,28.55
2018-05-12T10:55:53.833Z,28.11
2018-05-12T10:56:53.787Z,27.13
2018-05-12T10:57:53.780Z,26.94
2018-05-12T10:58:53.603Z,26.41
2018-05-12T10:59:53.525Z,26.87
2018-05-12T11:00:53.453Z,27.38
2018-05-12T11:01:53.445Z,27.52
2018-05-12T11:02:53.296Z,27.72
2018-05-12T11:03:53.223Z,27.81
2018-05-12T11:04:53.242Z,27.16
2018-05-12T11:05:53.068Z,26.87
2018-05-12T11:06:53.022Z,26.57
2018-05-12T11:07:52.917Z,26.36
2018-05-12T11:08:52.840Z,26.57
2018-05-12T11:09:52.761Z,26.65
2018-05-12T11:10:52.689Z,26.71
2018-05-12T11:11:52.751Z,26.87
2018-05-12T11:12:52.535Z,26.73
2018-05-12T11:13:52.456Z,26.50
2018-05-12T11:14:52.381Z,26.90
2018-05-12T11:15:52.423Z,27.18
2018-05-12T11:16:52.258Z,25.45
2018-05-12T11:17:52.245Z,25.72
2018-05-12T11:18:52.074Z,25.56
2018-05-12T11:19:51.999Z,25.97
2018-05-12T11:20:51.922Z,26.03
2018-05-12T11:21:51.916Z,25.49
2018-05-12T11:22:51.768Z,24.84
2018-05-12T11:23:51.818Z,24.67
2018-05-12T11:24:51.616Z,24.92
2018-05-12T11:25:51.539Z,25.20
2018-05-12T11:26:51.494Z,25.26
2018-05-12T11:27:51.387Z,25.51
2018-05-12T11:28:51.307Z,25.45
2018-05-12T11:29:51.227Z,25.54
2018-05-12T11:30:51.248Z,25.39
2018-05-12T11:31:51.106Z,25.61
2018-05-12T11:32:51.002Z,25.22
2018-05-12T11:33:50.920Z,25.38
2018-05-12T11:34:50.845Z,25.05
2018-05-12T11:35:50.774Z,24.71
2018-05-12T11:36:50.717Z,24.16
2018-05-12T11:37:50.702Z,24.27
2018-05-12T11:38:50.561Z,24.79
2018-05-12T11:39:50.458Z,25.23
2018-05-12T11:40:50.375Z,26.09
2018-05-12T11:41:50.335Z,26.06
2018-05-12T11:42:50.223Z,25.67
2018-05-12T11:43:50.144Z,25.67
2018-05-12T11:44:50.064Z,25.24
2018-05-12T11:45:49.989Z,25.59
2018-05-12T11:46:49.937Z,25.96
2018-05-12T11:47:49.830Z,26.09
2018-05-12T11:48:49.753Z,26.39
2018-05-12T11:49:49.675Z,26.96
2018-05-12T11:50:49.597Z,26.84
2018-05-12T11:51:49.549Z,26.35
2018-05-12T11:52:49.441Z,25.83
2018-05-12T11:53:49.360Z,24.46
2018-05-12T11:54:49.284Z,23.62
2018-05-12T11:55:49.205Z,23.35
2018-05-12T11:56:49.156Z,23.15
2018-05-12T11:57:49.050Z,22.84
2018-05-12T11:58:48.967Z,22.97
2018-05-12T11:59:48.889Z,23.86
2018-05-12T12:00:48.811Z,24.66
2018-05-12T12:01:48.736Z,25.30
2018-05-12T12:02:48.683Z,25.64
2018-05-12T12:03:48.598Z,25.91
2018-05-12T12:04:48.496Z,26.24
2018-05-12T12:05:48.415Z,26.68
2018-05-12T12:06:48.343Z,25.83
2018-05-12T12:07:48.289Z,25.45
2018-05-12T12:08:48.178Z,24.71
2018-05-12T12:09:48.099Z,23.67
2018-05-12T12:10:48.024Z,23.78
2018-05-12T12:11:47.945Z,24.37
2018-05-12T12:12:47.896Z,24.67
2018-05-12T12:13:47.783Z,24.61
2018-05-12T12:14:47.705Z,24.21
2018-05-12T12:15:47.627Z,24.04
2018-05-12T12:16:47.549Z,23.81
2018-05-12T12:17:47.498Z,23.60
2018-05-12T12:18:47.387Z,24.24
2018-05-12T12:19:47.310Z,24.46
2018-05-12T12:20:47.229Z,24.77
2018-05-12T12:21:47.148Z,25.36
2018-05-12T12:22:47.101Z,25.66
2018-05-12T12:23:46.990Z,25.49
2018-05-12T12:24:46.911Z,25.72
2018-05-12T12:25:46.832Z,25.75
2018-05-12T12:26:46.750Z,25.98
2018-05-12T12:27:46.698Z,26.01
2018-05-12T12:28:46.594Z,26.41
2018-05-12T12:29:46.510Z,26.65
2018-05-12T12:30:46.431Z,27.01
2018-05-12T12:31:46.371Z,27.08
2018-05-12T12:32:46.305Z,27.35
2018-05-12T12:33:46.196Z,26.71
2018-05-12T12:34:46.119Z,26.65
2018-05-12T12:35:46.038Z,25.75
2018-05-12T12:36:45.960Z,25.85
2018-05-12T12:37:45.910Z,25.97
2018-05-12T12:38:45.805Z,26.27
2018-05-12T12:39:45.723Z,26.38
2018-05-12T12:40:45.647Z,25.90
2018-05-12T12:41:45.565Z,25.66
2018-05-12T12:42:45.524Z,25.24
2018-05-12T12:43:45.414Z,24.99
2018-05-12T12:44:45.333Z,24.61
2018-05-12T12:45:45.254Z,24.19
2018-05-12T12:46:45.178Z,23.56
2018-05-12T12:47:45.127Z,22.67
2018-05-12T12:48:45.018Z,22.48
2018-05-12T12:49:44.942Z,22.76
2018-05-12T12:50:44.859Z,22.86
2018-05-12T12:51:44.824Z,22.78